createdAt,value
2024-03-01T00:01:02.436Z,1.13
2024-03-01T00:03:29.449Z,1.85
2024-03-01T00:05:56.506Z,1.10
2024-03-01T00:08:23.420Z,1.40
2024-03-01T00:10:52.804Z,1.40
2024-03-01T00:13:22.309Z,1.30
2024-03-01T00:15:51.683Z,1.65
2024-03-01T00:18:19.193Z,1.90
2024-03-01T00:20:46.252Z,1.60
2024-03-01T00:23:13.238Z,2.38
2024-03-01T00:25:41.161Z,2.20
2024-03-01T00:28:10.476Z,2.60
2024-03-01T00:30:37.547Z,2.20
2024-03-01T00:33:05.041Z,2.53
2024-03-01T00:35:34.324Z,1.95
2024-03-01T00:38:03.550Z,2.58
2024-03-01T00:40:34.063Z,2.88
2024-03-01T00:43:01.057Z,3.30
2024-03-01T00:45:33.175Z,3.10
2024-03-01T00:48:00.254Z,3.58
2024-03-01T00:50:27.698Z,3.25
2024-03-01T00:52:54.805Z,2.88
2024-03-01T00:55:21.852Z,2.85
2024-03-01T00:57:48.873Z,2.90
2024-03-01T01:00:16.447Z,3.05
2024-03-01T01:02:43.615Z,3.15
2024-03-01T01:05:15.232Z,3.00
2024-03-01T01:07:42.280Z,3.47
2024-03-01T01:10:09.566Z,3.38
2024-03-01T01:12:36.665Z,3.28
2024-03-01T01:15:06.187Z,2.90
2024-03-01T01:17:33.404Z,3.28
2024-03-01T01:20:00.553Z,2.90
2024-03-01T01:22:27.819Z,3.20
2024-03-01T01:24:54.940Z,3.08
2024-03-01T01:27:22.003Z,2.58
2024-03-01T01:29:51.431Z,2.50
2024-03-01T01:32:22.910Z,2.22
2024-03-01T01:34:52.059Z,2.75
2024-03-01T01:37:21.654Z,2.42
2024-03-01T01:39:48.701Z,2.30
2024-03-01T01:42:15.729Z,2.22
2024-03-01T01:44:42.716Z,2.30
2024-03-01T01:47:10.001Z,2.17
2024-03-01T01:49:37.033Z,2.13
2024-03-01T01:52:04.136Z,2.63
2024-03-01T01:54:33.294Z,2.50
2024-03-01T01:57:00.273Z,2.65
2024-03-01T01:59:34.147Z,2.92
2024-03-01T02:02:09.583Z,2.70
2024-03-01T02:04:36.643Z,2.92
2024-03-01T02:07:05.845Z,2.55
2024-03-01T02:09:32.908Z,2.15
2024-03-01T02:11:59.941Z,2.42
2024-03-01T02:14:29.237Z,2.30
2024-03-01T02:16:56.430Z,2.50
2024-03-01T02:19:25.761Z,2.08
2024-03-01T02:21:58.958Z,2.20
2024-03-01T02:24:25.958Z,2.30
2024-03-01T02:26:58.260Z,1.95
2024-03-01T02:29:28.983Z,1.70
2024-03-01T02:32:00.286Z,2.10
2024-03-01T02:34:27.982Z,1.95
2024-03-01T02:36:55.050Z,1.50
2024-03-01T02:39:27.551Z,1.45
2024-03-01T02:41:56.902Z,1.63
2024-03-01T02:44:28.528Z,1.58
2024-03-01T02:46:58.082Z,1.60
2024-03-01T02:49:27.401Z,1.67
2024-03-01T02:51:56.696Z,1.40
2024-03-01T02:54:26.232Z,1.48
2024-03-01T02:56:55.463Z,1.40
2024-03-01T02:59:28.823Z,1.10
2024-03-01T03:01:55.953Z,1.40
2024-03-01T03:04:25.355Z,1.27
2024-03-01T03:06:58.896Z,1.48
2024-03-01T03:09:26.342Z,1.30
2024-03-01T03:11:53.965Z,1.20
2024-03-01T03:14:20.906Z,1.30
2024-03-01T03:16:52.009Z,1.23
2024-03-01T03:19:21.390Z,1.20
2024-03-01T03:21:50.816Z,0.90
2024-03-01T03:24:18.538Z,0.80
2024-03-01T03:26:45.837Z,1.13
2024-03-01T03:29:15.367Z,1.30
2024-03-01T03:31:45.220Z,0.90
2024-03-01T03:34:14.577Z,1.17
2024-03-01T03:36:43.902Z,0.90
2024-03-01T03:39:10.826Z,1.35
2024-03-01T03:41:38.246Z,0.82
2024-03-01T03:44:07.863Z,0.90
2024-03-01T03:46:34.930Z,1.02
2024-03-01T03:49:02.348Z,0.88
2024-03-01T03:51:32.783Z,1.05
2024-03-01T03:53:59.721Z,0.82
2024-03-01T03:56:26.995Z,1.02
2024-03-01T03:58:53.994Z,0.75
2024-03-01T04:01:23.073Z,0.68
2024-03-01T04:03:50.523Z,0.77
2024-03-01T04:06:19.842Z,1.20
2024-03-01T04:08:46.804Z,0.63
2024-03-01T04:11:13.785Z,1.00
2024-03-01T04:13:40.791Z,1.55
2024-03-01T04:16:12.381Z,1.10
2024-03-01T04:18:39.646Z,1.50
2024-03-01T04:21:06.635Z,1.05
2024-03-01T04:23:34.151Z,1.27
2024-03-01T04:26:01.128Z,0.82
2024-03-01T04:28:28.157Z,0.75
2024-03-01T04:31:00.362Z,0.73
2024-03-01T04:33:29.815Z,0.50
2024-03-01T04:35:56.738Z,0.40
2024-03-01T04:38:23.671Z,0.60
2024-03-01T04:40:52.791Z,0.73
2024-03-01T04:43:19.800Z,0.75
2024-03-01T04:45:46.840Z,1.00
2024-03-01T04:48:13.808Z,1.08
2024-03-01T04:50:41.512Z,1.10
2024-03-01T04:53:10.687Z,0.70
2024-03-01T04:55:37.721Z,1.70
2024-03-01T04:58:07.296Z,1.10
2024-03-01T05:00:37.328Z,0.93
2024-03-01T05:03:09.593Z,0.60
2024-03-01T05:05:36.572Z,1.15
2024-03-01T05:08:04.259Z,0.47
2024-03-01T05:10:34.488Z,0.50
2024-03-01T05:13:01.597Z,0.63
2024-03-01T05:15:31.037Z,0.65
2024-03-01T05:17:58.635Z,0.20
2024-03-01T05:20:25.634Z,0.65
2024-03-01T05:22:54.776Z,0.50
2024-03-01T05:25:27.866Z,0.60
2024-03-01T05:27:55.035Z,0.85
2024-03-01T05:30:36.141Z,0.70
2024-03-01T05:33:14.768Z,0.50
2024-03-01T05:35:42.198Z,0.50
2024-03-01T05:38:09.689Z,0.82
2024-03-01T05:40:46.382Z,0.73
2024-03-01T05:43:22.510Z,0.38
2024-03-01T05:45:53.213Z,0.65
2024-03-01T05:48:20.562Z,0.75
2024-03-01T05:50:47.733Z,0.80
2024-03-01T05:53:19.421Z,0.75
2024-03-01T05:55:51.582Z,0.50
2024-03-01T05:58:20.851Z,0.50
2024-03-01T06:00:47.891Z,0.60
2024-03-01T06:03:14.908Z,0.73
2024-03-01T06:05:41.887Z,0.57
2024-03-01T06:08:11.257Z,0.90
2024-03-01T06:10:38.712Z,0.75
2024-03-01T06:13:05.926Z,1.20
2024-03-01T06:15:33.220Z,1.08
2024-03-01T06:18:07.330Z,1.35
2024-03-01T06:20:37.001Z,1.95
2024-03-01T06:23:06.452Z,1.30
2024-03-01T06:25:35.655Z,0.75
2024-03-01T06:28:04.946Z,1.20
2024-03-01T06:30:35.667Z,0.90
2024-03-01T06:33:03.797Z,0.82
2024-03-01T06:35:33.386Z,1.38
2024-03-01T06:38:01.300Z,0.90
2024-03-01T06:40:28.894Z,0.70
2024-03-01T06:42:58.291Z,1.20
2024-03-01T06:45:25.247Z,1.30
2024-03-01T06:47:54.772Z,1.13
2024-03-01T06:50:22.300Z,0.95
2024-03-01T06:52:49.251Z,1.23
2024-03-01T06:55:21.586Z,2.63
2024-03-01T06:57:48.902Z,1.63
2024-03-01T07:00:18.273Z,1.10
2024-03-01T07:02:47.339Z,1.10
2024-03-01T07:05:19.056Z,1.30
2024-03-01T07:07:46.115Z,1.08
2024-03-01T07:10:17.859Z,1.35
2024-03-01T07:12:44.858Z,1.23
2024-03-01T07:15:12.304Z,0.90
2024-03-01T07:17:39.459Z,1.08
2024-03-01T07:20:07.020Z,1.00
2024-03-01T07:22:34.014Z,0.98
2024-03-01T07:25:04.611Z,0.73
2024-03-01T07:27:31.735Z,0.85
2024-03-01T07:29:59.044Z,0.57
2024-03-01T07:32:30.791Z,0.68
2024-03-01T07:35:00.171Z,0.98
2024-03-01T07:37:27.146Z,0.80
2024-03-01T07:39:54.135Z,0.60
2024-03-01T07:42:21.161Z,0.50
2024-03-01T07:44:50.982Z,0.57
2024-03-01T07:47:18.142Z,0.60
2024-03-01T07:49:45.146Z,0.40
2024-03-01T07:52:14.745Z,0.25
2024-03-01T07:54:41.693Z,0.40
2024-03-01T07:57:11.181Z,0.52
2024-03-01T07:59:38.179Z,0.30
2024-03-01T08:02:07.530Z,0.60
2024-03-01T08:04:35.827Z,0.63
2024-03-01T08:07:08.257Z,0.40
2024-03-01T08:09:41.591Z,0.45
2024-03-01T08:12:14.293Z,0.50
2024-03-01T08:14:43.965Z,0.63
2024-03-01T08:17:13.017Z,0.40
2024-03-01T08:19:43.024Z,0.40
2024-03-01T08:22:10.946Z,0.43
2024-03-01T08:24:38.609Z,0.20
2024-03-01T08:27:06.266Z,0.30
2024-03-01T08:29:34.872Z,0.40
2024-03-01T08:32:05.615Z,0.30
2024-03-01T08:34:46.678Z,0.60
2024-03-01T08:37:24.777Z,0.40
2024-03-01T08:39:54.325Z,0.65
2024-03-01T08:42:24.389Z,0.70
2024-03-01T08:45:01.079Z,0.55
2024-03-01T08:47:40.373Z,0.35
2024-03-01T08:50:38.057Z,0.40
2024-03-01T08:53:25.890Z,0.65
2024-03-01T08:55:55.328Z,0.88
2024-03-01T08:58:24.860Z,0.82
2024-03-01T09:00:57.717Z,1.20
2024-03-01T09:03:31.396Z,1.00
2024-03-01T09:05:59.951Z,1.08
2024-03-01T09:08:33.576Z,1.05
2024-03-01T09:11:03.972Z,0.70
2024-03-01T09:13:32.406Z,1.50
2024-03-01T09:16:02.214Z,1.10
2024-03-01T09:18:34.392Z,0.80
2024-03-01T09:21:01.659Z,0.90
2024-03-01T09:23:30.742Z,0.80
2024-03-01T09:26:03.789Z,0.85
2024-03-01T09:28:33.249Z,0.80
2024-03-01T09:31:00.449Z,0.47
2024-03-01T09:33:30.114Z,0.75
2024-03-01T09:36:00.531Z,1.00
2024-03-01T09:38:27.549Z,0.40
2024-03-01T09:41:20.462Z,0.40
2024-03-01T09:43:50.297Z,0.77
2024-03-01T09:46:42.986Z,0.50
2024-03-01T09:49:26.739Z,0.40
2024-03-01T09:52:13.765Z,0.40
2024-03-01T09:54:55.240Z,0.60
2024-03-01T09:57:27.195Z,0.30
2024-03-01T09:59:59.987Z,0.30
2024-03-01T10:02:57.109Z,0.55
2024-03-01T10:05:29.692Z,0.30
2024-03-01T10:08:28.522Z,0.60
2024-03-01T10:10:58.564Z,0.95
2024-03-01T10:13:33.112Z,0.50
2024-03-01T10:16:17.996Z,0.65
2024-03-01T10:19:08.670Z,0.38
2024-03-01T10:22:05.245Z,0.47
2024-03-01T10:24:41.692Z,1.17
2024-03-01T10:27:36.591Z,0.60
2024-03-01T10:30:12.692Z,0.40
2024-03-01T10:32:48.529Z,0.68
2024-03-01T10:35:27.320Z,0.30
2024-03-01T10:37:54.307Z,0.50
2024-03-01T10:40:23.778Z,0.50
2024-03-01T10:43:25.747Z,0.50
2024-03-01T10:46:14.271Z,0.85
2024-03-01T10:48:53.550Z,0.88
2024-03-01T10:51:20.596Z,0.38
2024-03-01T10:53:52.490Z,0.88
2024-03-01T10:56:22.248Z,0.40
2024-03-01T10:58:55.916Z,0.43
2024-03-01T11:01:31.854Z,0.75
2024-03-01T11:04:43.703Z,1.23
2024-03-01T11:07:19.366Z,0.52
2024-03-01T11:10:00.581Z,0.80
2024-03-01T11:12:36.631Z,0.40
2024-03-01T11:15:10.485Z,0.50
2024-03-01T11:17:40.311Z,0.50
2024-03-01T11:20:22.330Z,0.30
2024-03-01T11:23:08.308Z,0.20
2024-03-01T11:26:05.229Z,0.10
2024-03-01T11:28:36.338Z,0.35
2024-03-01T11:31:08.109Z,0.10
2024-03-01T11:33:39.328Z,0.20
2024-03-01T11:36:38.699Z,0.10
2024-03-01T11:39:25.426Z,0.28
2024-03-01T11:42:11.604Z,0.08
2024-03-01T11:45:06.047Z,0.20
2024-03-01T11:47:47.460Z,0.30
2024-03-01T11:50:38.697Z,0.10
2024-03-01T11:53:57.890Z,0.20
2024-03-01T11:57:23.195Z,0.15
2024-03-01T12:00:06.142Z,0.10
2024-03-01T12:02:55.704Z,0.10
2024-03-01T12:05:57.876Z,0.10
2024-03-01T12:09:03.578Z,0.10
2024-03-01T12:11:40.319Z,0.13
2024-03-01T12:14:09.985Z,0.10
2024-03-01T12:17:01.740Z,0.10
2024-03-01T12:19:31.725Z,0.20
2024-03-01T12:22:01.403Z,0.15
2024-03-01T12:24:33.403Z,0.10
2024-03-01T12:27:13.773Z,0.20
2024-03-01T12:30:04.645Z,0.00
2024-03-01T12:32:40.663Z,0.10
2024-03-01T12:35:40.065Z,0.38
2024-03-01T12:38:26.677Z,0.10
2024-03-01T12:41:11.527Z,0.30
2024-03-01T12:43:57.392Z,0.20
2024-03-01T12:46:43.415Z,0.20
2024-03-01T12:49:35.310Z,0.20
2024-03-01T12:52:13.862Z,0.20
2024-03-01T12:54:47.643Z,0.40
2024-03-01T12:57:21.132Z,0.52
2024-03-01T13:00:15.452Z,0.30
2024-03-01T13:03:01.624Z,0.30
2024-03-01T13:05:41.777Z,0.47
2024-03-01T13:09:06.375Z,0.20
2024-03-01T13:11:35.877Z,0.60
2024-03-01T13:14:08.966Z,0.70
2024-03-01T13:16:38.111Z,0.40
2024-03-01T13:19:19.319Z,0.50
2024-03-01T13:21:50.804Z,0.50
2024-03-01T13:24:53.362Z,0.50
2024-03-01T13:27:28.666Z,0.50
2024-03-01T13:30:03.962Z,0.70
2024-03-01T13:32:41.571Z,0.30
2024-03-01T13:35:14.749Z,0.50
2024-03-01T13:38:28.526Z,0.50
2024-03-01T13:41:02.520Z,0.60
2024-03-01T13:43:35.544Z,0.38
2024-03-01T13:46:16.940Z,0.90
2024-03-01T13:48:48.320Z,0.70
2024-03-01T13:51:17.597Z,0.98
2024-03-01T13:53:47.722Z,0.60
2024-03-01T13:56:21.000Z,0.63
2024-03-01T13:58:47.986Z,0.70
2024-03-01T14:01:17.100Z,0.80
2024-03-01T14:03:58.024Z,0.63
2024-03-01T14:06:25.730Z,0.38
2024-03-01T14:08:53.297Z,0.40
2024-03-01T14:11:20.691Z,0.52
2024-03-01T14:13:51.287Z,0.28
2024-03-01T14:16:19.601Z,0.28
2024-03-01T14:18:49.162Z,0.40
2024-03-01T14:21:16.166Z,0.30
2024-03-01T14:23:46.887Z,0.73
2024-03-01T14:26:17.010Z,0.65
2024-03-01T14:28:50.493Z,0.35
2024-03-01T14:31:17.590Z,1.15
2024-03-01T14:34:01.187Z,0.47
2024-03-01T14:36:28.351Z,0.85
2024-03-01T14:38:58.224Z,0.55
2024-03-01T14:41:48.989Z,0.68
2024-03-01T14:44:25.564Z,1.30
2024-03-01T14:46:58.110Z,0.43
2024-03-01T14:49:27.179Z,0.77
2024-03-01T14:51:56.476Z,0.63
2024-03-01T14:54:28.472Z,0.85
2024-03-01T14:56:56.117Z,0.63
2024-03-01T14:59:27.821Z,0.63
2024-03-01T15:01:55.165Z,0.80
2024-03-01T15:04:26.945Z,0.63
2024-03-01T15:06:57.175Z,0.60
2024-03-01T15:09:24.467Z,0.63
2024-03-01T15:11:52.039Z,0.55
2024-03-01T15:14:23.454Z,0.82
2024-03-01T15:16:53.508Z,1.13
2024-03-01T15:19:20.636Z,0.50
2024-03-01T15:21:50.705Z,0.60
2024-03-01T15:24:19.368Z,0.40
2024-03-01T15:26:47.116Z,0.73
2024-03-01T15:29:16.584Z,0.80
2024-03-01T15:31:44.533Z,0.55
2024-03-01T15:34:17.282Z,0.70
2024-03-01T15:39:16.634Z,1.08
2024-03-01T15:41:48.190Z,0.75
2024-03-01T15:44:20.733Z,1.60
2024-03-01T15:46:48.168Z,0.80
2024-03-01T15:49:15.607Z,0.70
2024-03-01T15:51:45.120Z,0.60
2024-03-01T15:54:15.629Z,0.50
2024-03-01T15:56:44.776Z,0.73
2024-03-01T15:59:11.860Z,0.70
2024-03-01T16:01:41.009Z,0.65
2024-03-01T16:04:10.627Z,0.60
2024-03-01T16:06:41.609Z,0.50
2024-03-01T16:09:10.316Z,0.60
2024-03-01T16:11:41.981Z,0.60
2024-03-01T16:14:12.411Z,0.75
2024-03-01T16:16:39.436Z,0.65
2024-03-01T16:19:06.472Z,0.60
2024-03-01T16:21:36.056Z,0.40
2024-03-01T16:24:08.329Z,0.82
2024-03-01T16:26:35.311Z,0.85
2024-03-01T16:29:04.927Z,0.70
2024-03-01T16:31:36.665Z,0.40
2024-03-01T16:34:05.997Z,0.45
2024-03-01T16:36:33.030Z,0.40
2024-03-01T16:39:00.407Z,0.50
2024-03-01T16:41:33.010Z,0.70
2024-03-01T16:44:02.411Z,0.70
2024-03-01T16:46:32.946Z,0.50
2024-03-01T16:49:01.635Z,0.40
2024-03-01T16:51:39.820Z,0.88
2024-03-01T16:54:27.171Z,0.70
2024-03-01T16:59:26.387Z,0.60
2024-03-01T17:01:57.504Z,0.52
2024-03-01T17:04:27.257Z,0.50
2024-03-01T17:06:54.255Z,0.55
2024-03-01T17:09:23.504Z,0.60
2024-03-01T17:11:56.500Z,0.80
2024-03-01T17:14:23.992Z,0.98
2024-03-01T17:16:55.237Z,0.60
2024-03-01T17:19:30.480Z,0.70
2024-03-01T17:22:03.394Z,0.63
2024-03-01T17:24:31.089Z,1.10
2024-03-01T17:26:58.110Z,0.50
2024-03-01T17:29:25.513Z,0.60
2024-03-01T17:31:54.663Z,0.90
2024-03-01T17:34:24.104Z,1.05
2024-03-01T17:36:53.268Z,0.70
2024-03-01T17:39:22.654Z,0.80
2024-03-01T17:41:49.956Z,0.90
2024-03-01T17:44:19.493Z,0.73
2024-03-01T17:46:51.602Z,0.70
2024-03-01T17:49:29.434Z,1.08
2024-03-01T17:51:58.952Z,1.58
2024-03-01T17:54:25.959Z,3.17
2024-03-01T17:56:55.144Z,2.35
2024-03-01T17:59:24.636Z,2.17
2024-03-01T18:01:51.646Z,2.28
2024-03-01T18:04:20.861Z,1.20
2024-03-01T18:06:47.892Z,1.50
2024-03-01T18:09:14.874Z,1.42
2024-03-01T18:11:42.217Z,1.90
2024-03-01T18:14:09.466Z,1.90
2024-03-01T18:16:36.517Z,2.42
2024-03-01T18:19:03.514Z,1.50
2024-03-01T18:21:33.005Z,1.25
2024-03-01T18:24:05.127Z,1.30
2024-03-01T18:26:32.107Z,0.90
2024-03-01T18:29:01.141Z,0.70
2024-03-01T18:31:28.165Z,1.10
2024-03-01T18:33:59.667Z,0.70
2024-03-01T18:36:29.234Z,0.80
2024-03-01T18:38:58.584Z,0.70
2024-03-01T18:41:25.798Z,0.52
2024-03-01T18:43:53.307Z,0.70
2024-03-01T18:46:20.335Z,1.08
2024-03-01T18:48:51.188Z,1.00
2024-03-01T18:51:18.595Z,0.60
2024-03-01T18:53:45.645Z,0.70
2024-03-01T18:56:19.638Z,0.73
2024-03-01T18:58:48.765Z,1.02
2024-03-01T19:01:16.305Z,1.00
2024-03-01T19:03:46.102Z,0.60
2024-03-01T19:06:15.425Z,1.02
2024-03-01T19:08:42.387Z,0.40
2024-03-01T19:11:09.379Z,0.40
2024-03-01T19:13:39.453Z,0.40
2024-03-01T19:16:09.073Z,0.45
2024-03-01T19:18:36.122Z,0.80
2024-03-01T19:21:03.182Z,0.60
2024-03-01T19:23:33.374Z,0.38
2024-03-01T19:26:02.009Z,0.40
2024-03-01T19:28:29.301Z,0.30
2024-03-01T19:30:58.538Z,0.25
2024-03-01T19:33:28.115Z,0.22
2024-03-01T19:35:55.532Z,0.38
2024-03-01T19:38:23.354Z,0.30
2024-03-01T19:40:53.994Z,0.10
2024-03-01T19:43:24.452Z,0.20
2024-03-01T19:45:52.287Z,0.30
2024-03-01T19:48:19.435Z,0.20
2024-03-01T19:50:46.503Z,0.20
2024-03-01T19:53:13.537Z,0.40
2024-03-01T19:55:42.758Z,0.38
2024-03-01T19:58:12.234Z,0.35
2024-03-01T20:00:39.786Z,0.70
2024-03-01T20:03:06.827Z,0.50
2024-03-01T20:05:38.651Z,0.35
2024-03-01T20:08:05.848Z,0.50
2024-03-01T20:10:32.847Z,0.40
2024-03-01T20:13:02.163Z,0.50
2024-03-01T20:15:29.324Z,0.50
2024-03-01T20:17:58.808Z,0.68
2024-03-01T20:20:25.801Z,0.63
2024-03-01T20:22:57.205Z,0.32
2024-03-01T20:25:26.956Z,0.40
2024-03-01T20:27:56.394Z,0.30
2024-03-01T20:30:23.413Z,0.40
2024-03-01T20:32:52.841Z,0.40
2024-03-01T20:35:22.138Z,0.75
2024-03-01T20:37:49.209Z,0.45
2024-03-01T20:40:16.360Z,0.50
2024-03-01T20:42:45.910Z,0.60
2024-03-01T20:45:15.272Z,0.70
2024-03-01T20:47:42.293Z,0.60
2024-03-01T20:50:12.229Z,0.43
2024-03-01T20:52:41.792Z,0.80
2024-03-01T20:55:09.218Z,0.60
2024-03-01T20:57:38.706Z,0.65
2024-03-01T21:00:11.236Z,0.60
2024-03-01T21:02:40.343Z,0.70
2024-03-01T21:05:10.494Z,0.52
2024-03-01T21:07:40.310Z,0.47
2024-03-01T21:10:11.057Z,0.30
2024-03-01T21:12:40.846Z,0.30
2024-03-01T21:15:11.016Z,0.57
2024-03-01T21:17:38.632Z,0.22
2024-03-01T21:20:08.797Z,0.50
2024-03-01T21:25:16.676Z,0.50
2024-03-01T21:27:48.809Z,0.63
2024-03-01T21:30:19.206Z,0.40
2024-03-01T21:32:49.167Z,0.43
2024-03-01T21:35:16.650Z,0.90
2024-03-01T21:37:43.706Z,0.80
2024-03-01T21:40:23.560Z,0.60
2024-03-01T21:42:52.836Z,0.80
2024-03-01T21:45:19.880Z,1.05
2024-03-01T21:47:47.465Z,0.70
2024-03-01T21:50:17.039Z,1.02
2024-03-01T21:52:44.051Z,0.90
2024-03-01T21:55:11.327Z,0.90
2024-03-01T21:57:38.434Z,1.00
2024-03-01T22:00:08.266Z,0.82
2024-03-01T22:02:35.258Z,0.63
2024-03-01T22:05:04.900Z,0.52
2024-03-01T22:07:32.145Z,0.70
2024-03-01T22:09:59.380Z,0.57
2024-03-01T22:12:26.615Z,1.15
2024-03-01T22:14:58.702Z,0.70
2024-03-01T22:17:25.864Z,0.82
2024-03-01T22:19:55.337Z,0.77
2024-03-01T22:22:26.756Z,0.60
2024-03-01T22:24:57.400Z,0.73
2024-03-01T22:27:24.455Z,0.77
2024-03-01T22:29:53.581Z,0.93
2024-03-01T22:32:21.052Z,0.50
2024-03-01T22:34:52.688Z,0.60
2024-03-01T22:37:21.755Z,0.50
2024-03-01T22:39:51.200Z,0.30
2024-03-01T22:42:19.471Z,0.50
2024-03-01T22:44:46.457Z,0.38
2024-03-01T22:47:14.094Z,0.50
2024-03-01T22:49:44.948Z,0.50
2024-03-01T22:52:15.808Z,0.50
2024-03-01T22:54:46.026Z,0.55
2024-03-01T22:57:16.594Z,0.47
2024-03-01T23:00:21.411Z,0.52
2024-03-01T23:02:55.545Z,0.50
2024-03-01T23:05:41.442Z,0.70
2024-03-01T23:08:33.430Z,1.10
2024-03-01T23:11:01.718Z,0.85
2024-03-01T23:13:31.473Z,0.70
2024-03-01T23:16:00.839Z,0.80
2024-03-01T23:18:27.837Z,0.70
2024-03-01T23:20:57.213Z,0.93
2024-03-01T23:23:24.191Z,0.40
2024-03-01T23:25:53.663Z,0.40
2024-03-01T23:28:20.685Z,0.40
2024-03-01T23:30:50.219Z,0.70
2024-03-01T23:33:17.424Z,0.63
2024-03-01T23:35:44.430Z,0.90
2024-03-01T23:38:11.455Z,0.50
2024-03-01T23:40:38.436Z,0.43
2024-03-01T23:43:05.520Z,0.60
2024-03-01T23:45:35.308Z,0.57
2024-03-01T23:48:04.411Z,0.73
2024-03-01T23:50:31.448Z,0.45
2024-03-01T23:53:01.041Z,0.80
2024-03-01T23:55:28.038Z,0.57
2024-03-01T23:57:55.995Z,0.55
